createdAt,value
2019-05-11T00:08:00.945Z,4.00
2019-05-11T00:13:04.425Z,4.10
2019-05-11T00:18:07.937Z,3.60
2019-05-11T00:23:11.374Z,3.75
2019-05-11T00:28:14.909Z,3.70
2019-05-11T00:33:18.632Z,3.83
2019-05-11T00:38:22.060Z,4.42
2019-05-11T00:43:25.493Z,4.10
2019-05-11T00:48:28.929Z,5.55
2019-05-11T00:53:33.054Z,5.65
2019-05-11T00:58:36.516Z,6.17
2019-05-11T01:03:39.950Z,6.08
2019-05-11T01:08:43.633Z,7.03
2019-05-11T01:13:47.066Z,5.60
2019-05-11T01:18:50.790Z,5.78
2019-05-11T01:23:54.220Z,5.80
2019-05-11T01:28:57.662Z,6.17
2019-05-11T01:34:01.094Z,5.60
2019-05-11T01:39:06.531Z,5.10
2019-05-11T01:44:09.959Z,4.80
2019-05-11T01:49:13.667Z,4.78
2019-05-11T01:54:17.056Z,5.03
2019-05-11T01:59:20.448Z,5.22
2019-05-11T02:04:23.833Z,5.25
2019-05-11T02:09:27.224Z,5.05
2019-05-11T02:14:30.612Z,5.30
2019-05-11T02:19:34.242Z,5.95
2019-05-11T02:24:37.639Z,6.12
2019-05-11T02:29:41.773Z,7.45
2019-05-11T02:34:45.484Z,7.25
2019-05-11T02:39:48.877Z,7.90
2019-05-11T02:44:52.629Z,7.62
2019-05-11T02:49:56.218Z,8.65
2019-05-11T02:55:01.626Z,8.80
2019-05-11T03:00:08.195Z,8.85
2019-05-11T03:05:11.734Z,8.60
2019-05-11T03:10:15.126Z,7.92
2019-05-11T03:15:18.539Z,9.35
2019-05-11T03:20:21.942Z,10.20
2019-05-11T03:25:25.350Z,8.75
2019-05-11T03:30:28.971Z,9.35
2019-05-11T03:35:32.386Z,10.45
2019-05-11T03:40:35.794Z,9.25
2019-05-11T03:45:39.193Z,10.00
2019-05-11T03:50:42.591Z,9.78
2019-05-11T03:55:45.985Z,9.28
2019-05-11T04:00:49.639Z,9.18
2019-05-11T04:05:53.271Z,8.95
2019-05-11T04:10:56.684Z,10.43
2019-05-11T04:16:00.148Z,9.00
2019-05-11T04:21:03.547Z,10.70
2019-05-11T04:26:06.962Z,9.83
2019-05-11T04:31:10.358Z,9.23
2019-05-11T04:36:13.756Z,8.38
2019-05-11T04:41:17.398Z,9.20
2019-05-11T04:46:20.877Z,9.78
2019-05-11T04:51:24.295Z,8.53
2019-05-11T04:56:27.690Z,7.83
2019-05-11T05:01:31.283Z,8.48
2019-05-11T05:06:34.693Z,9.00
2019-05-11T05:11:38.501Z,8.00
2019-05-11T05:16:41.995Z,7.58
2019-05-11T05:21:45.617Z,5.67
2019-05-11T05:26:49.007Z,6.45
2019-05-11T05:31:52.428Z,6.00
2019-05-11T05:36:56.060Z,7.15
2019-05-11T05:41:59.448Z,6.50
2019-05-11T05:47:02.838Z,5.78
2019-05-11T05:52:06.496Z,6.15
2019-05-11T05:57:09.835Z,6.70
2019-05-11T06:02:13.235Z,4.83
2019-05-11T06:07:16.619Z,5.30
2019-05-11T06:12:20.012Z,4.80
2019-05-11T06:17:23.457Z,4.22
2019-05-11T06:22:26.873Z,5.42
2019-05-11T06:27:30.286Z,4.17
2019-05-11T06:32:33.685Z,3.60
2019-05-11T06:37:37.076Z,3.90
2019-05-11T06:42:40.464Z,3.50
2019-05-11T06:47:44.091Z,3.30
2019-05-11T06:52:48.017Z,2.20
2019-05-11T06:57:51.409Z,2.85
2019-05-11T07:02:55.042Z,2.52
2019-05-11T07:07:58.439Z,2.15
2019-05-11T07:13:02.179Z,1.52
2019-05-11T07:18:05.578Z,1.50
2019-05-11T07:23:08.968Z,1.32
2019-05-11T07:28:12.380Z,1.40
2019-05-11T07:33:18.163Z,1.57
2019-05-11T07:38:20.903Z,1.40
2019-05-11T07:43:24.291Z,2.35
2019-05-11T07:48:28.086Z,1.90
2019-05-11T07:53:31.407Z,1.85
2019-05-11T07:58:35.060Z,1.80
2019-05-11T08:03:39.009Z,1.80
2019-05-11T08:08:42.440Z,3.33
2019-05-11T08:13:47.909Z,6.12
2019-05-11T08:18:50.959Z,2.08
2019-05-11T08:23:54.350Z,2.83
2019-05-11T08:28:58.125Z,2.33
2019-05-11T08:34:01.489Z,1.70
2019-05-11T08:39:07.853Z,1.50
2019-05-11T08:44:11.289Z,1.42
2019-05-11T08:49:15.897Z,1.30
2019-05-11T08:54:19.809Z,2.37
2019-05-11T08:59:23.435Z,1.30
2019-05-11T09:04:28.785Z,1.35
2019-05-11T09:09:32.013Z,1.47
2019-05-11T09:14:35.404Z,2.00
2019-05-11T09:19:38.991Z,1.40
2019-05-11T09:24:42.365Z,1.60
2019-05-11T09:29:47.845Z,1.80
2019-05-11T09:34:51.100Z,1.75
2019-05-11T09:39:54.492Z,1.60
2019-05-11T09:44:58.125Z,1.47
2019-05-11T09:50:01.528Z,1.57
2019-05-11T09:55:08.733Z,1.62
2019-05-11T10:00:12.565Z,1.60
2019-05-11T10:05:18.567Z,1.50
2019-05-11T10:10:21.378Z,1.57
2019-05-11T10:15:24.769Z,1.65
2019-05-11T10:20:28.796Z,1.65
2019-05-11T10:25:32.500Z,1.72
2019-05-11T10:30:38.402Z,1.47
2019-05-11T10:35:41.003Z,1.35
2019-05-11T10:40:44.393Z,1.75
2019-05-11T10:45:48.478Z,1.70
2019-05-11T10:50:51.858Z,1.50
2019-05-11T10:55:55.249Z,1.70
2019-05-11T11:00:58.649Z,1.87
2019-05-11T11:06:02.062Z,1.42
2019-05-11T11:11:07.880Z,1.60
2019-05-11T11:16:10.583Z,1.87
2019-05-11T11:21:13.973Z,1.90
2019-05-11T11:26:18.433Z,2.08
2019-05-11T11:31:21.998Z,1.90
2019-05-11T11:36:25.390Z,1.90
2019-05-11T11:41:30.020Z,1.90
2019-05-11T11:46:47.642Z,1.65
2019-05-11T11:51:38.637Z,1.55
2019-05-11T11:56:42.265Z,1.50
2019-05-11T12:01:48.509Z,1.30
2019-05-11T12:06:51.000Z,1.50
2019-05-11T12:11:54.388Z,1.50
2019-05-11T12:17:07.428Z,1.60
2019-05-11T12:22:02.900Z,1.52
2019-05-11T12:27:07.732Z,1.60
2019-05-11T12:32:15.516Z,1.72
2019-05-11T12:37:21.758Z,1.60
2019-05-11T12:42:24.050Z,1.60
2019-05-11T12:47:28.310Z,1.50
2019-05-11T12:52:31.712Z,1.60
2019-05-11T12:57:35.120Z,1.40
2019-05-11T13:02:38.916Z,1.20
2019-05-11T13:07:42.389Z,1.50
2019-05-11T13:12:45.776Z,1.65
2019-05-11T13:17:49.427Z,1.02
2019-05-11T13:22:53.096Z,1.20
2019-05-11T13:27:58.141Z,1.40
2019-05-11T13:33:01.728Z,1.10
2019-05-11T13:38:05.141Z,1.10
2019-05-11T13:43:08.572Z,1.00
2019-05-11T13:48:11.920Z,0.90
2019-05-11T13:53:15.314Z,1.10
2019-05-11T13:58:19.794Z,1.20
2019-05-11T14:03:23.476Z,0.95
2019-05-11T14:08:27.753Z,0.90
2019-05-11T14:13:31.477Z,0.75
2019-05-11T14:18:34.868Z,3.15
2019-05-11T14:23:38.825Z,1.10
2019-05-11T14:28:42.565Z,0.80
2019-05-11T14:33:46.198Z,0.85
2019-05-11T14:38:50.424Z,1.30
2019-05-11T14:43:53.817Z,1.30
2019-05-11T14:48:58.518Z,1.37
2019-05-11T14:54:01.973Z,1.00
2019-05-11T14:59:05.632Z,1.10
2019-05-11T15:04:09.310Z,1.07
2019-05-11T15:09:12.694Z,0.78
2019-05-11T15:14:19.521Z,1.05
2019-05-11T15:19:21.196Z,1.40
2019-05-11T15:24:28.655Z,1.17
2019-05-11T15:29:31.393Z,1.52
2019-05-11T15:34:34.784Z,1.90
2019-05-11T15:39:38.180Z,1.50
2019-05-11T15:44:41.571Z,1.50
2019-05-11T15:49:44.986Z,1.40
2019-05-11T15:54:48.397Z,1.20
2019-05-11T15:59:51.807Z,1.15
2019-05-11T16:04:55.198Z,1.22
2019-05-11T16:10:00.880Z,1.20
2019-05-11T16:15:08.562Z,1.10
2019-05-11T16:20:11.541Z,1.32
2019-05-11T16:25:15.280Z,1.50
2019-05-11T16:30:21.499Z,1.40
2019-05-11T16:35:24.531Z,1.70
2019-05-11T16:40:29.492Z,1.67
2019-05-11T16:45:33.100Z,1.10
2019-05-11T16:50:38.377Z,0.80
2019-05-11T16:55:41.839Z,1.10
2019-05-11T17:00:45.232Z,0.90
2019-05-11T17:05:48.868Z,0.90
2019-05-11T17:10:59.343Z,0.90
2019-05-11T17:16:03.128Z,1.10
2019-05-11T17:21:07.863Z,0.90
2019-05-11T17:26:11.410Z,1.02
2019-05-11T17:31:14.800Z,1.20
2019-05-11T17:36:18.792Z,1.20
2019-05-11T17:41:22.161Z,1.30
2019-05-11T17:46:27.756Z,1.50
2019-05-11T17:51:30.663Z,1.87
2019-05-11T17:56:34.077Z,2.47
2019-05-11T18:01:37.490Z,1.87
2019-05-11T18:06:40.903Z,1.55
2019-05-11T18:11:44.565Z,1.30
2019-05-11T18:16:48.194Z,2.70
2019-05-11T18:21:51.649Z,4.17
2019-05-11T18:26:55.036Z,4.10
2019-05-11T18:31:58.423Z,3.87
2019-05-11T18:37:01.831Z,3.00
2019-05-11T18:42:05.220Z,1.35
2019-05-11T18:47:08.851Z,2.40
2019-05-11T18:52:12.349Z,1.90
2019-05-11T18:57:18.596Z,1.70
2019-05-11T19:02:21.097Z,1.30
2019-05-11T19:07:24.499Z,2.92
2019-05-11T19:12:28.076Z,3.10
2019-05-11T19:17:31.458Z,1.40
2019-05-11T19:22:35.123Z,1.30
2019-05-11T19:27:38.777Z,1.57
2019-05-11T19:32:42.166Z,3.75
2019-05-11T19:37:45.559Z,8.20
2019-05-11T19:42:58.707Z,2.17
2019-05-11T19:48:01.350Z,4.50
2019-05-11T19:53:04.730Z,6.95
2019-05-11T19:58:08.361Z,4.58
2019-05-11T20:03:11.753Z,2.62
2019-05-11T20:08:15.154Z,1.70
2019-05-11T20:13:18.794Z,1.60
2019-05-11T20:18:22.212Z,2.83
2019-05-11T20:23:25.608Z,2.98
2019-05-11T20:28:29.003Z,3.45
2019-05-11T20:33:32.402Z,3.08
2019-05-11T20:38:35.799Z,2.52
2019-05-11T20:43:40.703Z,3.05
2019-05-11T20:48:44.113Z,2.85
2019-05-11T20:53:48.961Z,3.52
2019-05-11T20:58:59.346Z,3.10
2019-05-11T21:04:02.338Z,2.85
2019-05-11T21:09:07.452Z,2.72
2019-05-11T21:14:10.835Z,2.30
2019-05-11T21:19:14.224Z,2.62
2019-05-11T21:24:18.743Z,1.92
2019-05-11T21:29:22.190Z,2.10
2019-05-11T21:34:27.778Z,1.95
2019-05-11T21:39:30.712Z,1.90
2019-05-11T21:44:34.104Z,1.90
2019-05-11T21:49:37.853Z,1.82
2019-05-11T21:54:41.263Z,1.60
2019-05-11T21:59:44.891Z,1.87
2019-05-11T22:04:48.516Z,1.50
2019-05-11T22:09:51.907Z,1.80
2019-05-11T22:14:55.304Z,1.72
2019-05-11T22:19:58.705Z,2.30
2019-05-11T22:25:02.092Z,2.33
2019-05-11T22:30:08.341Z,2.90
2019-05-11T22:35:12.024Z,2.85
2019-05-11T22:40:15.685Z,4.12
2019-05-11T22:45:19.144Z,4.45
2019-05-11T22:50:22.549Z,6.60
2019-05-11T22:55:27.740Z,8.38
2019-05-11T23:00:39.586Z,10.15
2019-05-11T23:05:43.054Z,9.80
2019-05-11T23:10:47.883Z,10.20
2019-05-11T23:15:51.286Z,11.05
2019-05-11T23:20:54.682Z,10.60
2019-05-11T23:25:58.130Z,10.63
2019-05-11T23:31:01.492Z,9.60
2019-05-11T23:36:04.882Z,9.00
2019-05-11T23:41:08.407Z,7.42
2019-05-11T23:46:11.751Z,7.97
2019-05-11T23:51:15.141Z,6.25
2019-05-11T23:56:18.535Z,5.30
